createdAt,value
2022-10-01T00:00:47.867Z,10.40
2022-10-01T00:03:14.488Z,10.50
2022-10-01T00:05:40.888Z,10.27
2022-10-01T00:08:07.280Z,10.32
2022-10-01T00:10:33.929Z,10.35
2022-10-01T00:13:00.621Z,9.77
2022-10-01T00:15:27.125Z,9.70
2022-10-01T00:17:53.749Z,10.07
2022-10-01T00:20:20.580Z,10.48
2022-10-01T00:22:47.373Z,10.30
2022-10-01T00:25:13.734Z,10.63
2022-10-01T00:27:40.858Z,10.13
2022-10-01T00:30:07.920Z,10.50
2022-10-01T00:32:34.245Z,10.52
2022-10-01T00:35:00.936Z,10.50
2022-10-01T00:37:27.404Z,10.73
2022-10-01T00:39:53.991Z,10.90
2022-10-01T00:42:26.791Z,10.65
2022-10-01T00:44:56.374Z,10.70
2022-10-01T00:47:36.143Z,10.93
2022-10-01T00:50:09.792Z,11.02
2022-10-01T00:52:40.727Z,10.75
2022-10-01T00:55:12.259Z,11.20
2022-10-01T00:57:40.112Z,10.73
2022-10-01T01:00:10.062Z,11.02
2022-10-01T01:02:36.993Z,11.18
2022-10-01T01:05:04.792Z,11.45
2022-10-01T01:07:33.749Z,11.52
2022-10-01T01:10:01.831Z,11.27
2022-10-01T01:12:52.919Z,11.00
2022-10-01T01:15:24.956Z,11.35
2022-10-01T01:17:59.119Z,10.73
2022-10-01T01:21:00.003Z,10.93
2022-10-01T01:23:46.954Z,10.90
2022-10-01T01:26:48.049Z,10.93
2022-10-01T01:29:38.281Z,10.98
2022-10-01T01:32:14.991Z,11.10
2022-10-01T01:34:48.961Z,11.07
2022-10-01T01:37:18.458Z,11.23
2022-10-01T01:39:50.775Z,11.18
2022-10-01T01:42:31.144Z,10.52
2022-10-01T01:45:00.935Z,12.07
2022-10-01T01:47:30.433Z,10.50
2022-10-01T01:49:58.404Z,11.48
2022-10-01T01:52:25.006Z,11.45
2022-10-01T01:54:51.610Z,11.32
2022-10-01T01:57:19.849Z,11.45
2022-10-01T01:59:47.092Z,10.80
2022-10-01T02:02:17.451Z,11.38
2022-10-01T02:04:48.912Z,11.90
2022-10-01T02:07:16.134Z,11.48
2022-10-01T02:09:54.994Z,11.40
2022-10-01T02:13:03.373Z,11.98
2022-10-01T02:15:48.109Z,12.55
2022-10-01T02:18:37.395Z,11.95
2022-10-01T02:21:07.020Z,12.13
2022-10-01T02:23:42.918Z,11.00
2022-10-01T02:26:16.037Z,11.80
2022-10-01T02:28:44.508Z,12.40
2022-10-01T02:31:12.766Z,11.48
2022-10-01T02:33:41.863Z,11.63
2022-10-01T02:36:10.974Z,11.07
2022-10-01T02:38:41.815Z,11.23
2022-10-01T02:41:11.638Z,11.48
2022-10-01T02:43:50.183Z,11.18
2022-10-01T02:46:28.406Z,11.18
2022-10-01T02:48:56.708Z,11.25
2022-10-01T02:51:33.302Z,11.50
2022-10-01T02:54:09.268Z,11.82
2022-10-01T02:56:56.343Z,11.63
2022-10-01T02:59:22.831Z,11.20
2022-10-01T03:01:49.368Z,11.98
2022-10-01T03:04:15.828Z,11.15
2022-10-01T03:06:42.153Z,11.10
2022-10-01T03:09:08.742Z,11.32
2022-10-01T03:11:35.504Z,11.40
2022-10-01T03:14:02.998Z,10.85
2022-10-01T03:16:29.402Z,11.02
2022-10-01T03:18:56.005Z,10.90
2022-10-01T03:21:22.368Z,11.48
2022-10-01T03:23:49.026Z,11.10
2022-10-01T03:26:15.453Z,10.90
2022-10-01T03:28:41.825Z,11.27
2022-10-01T03:31:10.032Z,10.90
2022-10-01T03:33:36.769Z,11.13
2022-10-01T03:36:04.364Z,10.43
2022-10-01T03:38:31.246Z,10.82
2022-10-01T03:40:57.984Z,10.50
2022-10-01T03:43:24.496Z,11.70
2022-10-01T03:45:50.981Z,12.30
2022-10-01T03:48:18.230Z,12.65
2022-10-01T03:50:53.613Z,13.35
2022-10-01T03:53:20.179Z,14.45
2022-10-01T03:55:46.493Z,16.48
2022-10-01T03:58:12.847Z,17.30
2022-10-01T04:00:39.364Z,18.58
2022-10-01T04:03:06.776Z,19.55
2022-10-01T04:05:33.669Z,19.58
2022-10-01T04:08:00.625Z,19.98
2022-10-01T04:10:26.972Z,18.67
2022-10-01T04:12:55.509Z,19.20
2022-10-01T04:15:22.767Z,19.67
2022-10-01T04:17:49.425Z,18.73
2022-10-01T04:20:15.783Z,18.50
2022-10-01T04:22:42.928Z,19.08
2022-10-01T04:25:10.860Z,19.27
2022-10-01T04:27:41.837Z,19.10
2022-10-01T04:30:09.853Z,19.75
2022-10-01T04:32:37.334Z,18.60
2022-10-01T04:35:04.461Z,19.38
2022-10-01T04:37:31.245Z,18.65
2022-10-01T04:39:57.582Z,19.25
2022-10-01T04:42:23.917Z,18.80
2022-10-01T04:44:50.855Z,19.38
2022-10-01T04:47:17.369Z,19.92
2022-10-01T04:49:43.742Z,18.65
2022-10-01T04:52:11.316Z,18.60
2022-10-01T04:54:39.018Z,21.38
2022-10-01T04:57:05.420Z,21.98
2022-10-01T04:59:32.183Z,21.90
2022-10-01T05:01:58.673Z,22.80
2022-10-01T05:04:25.090Z,22.83
2022-10-01T05:06:51.639Z,22.50
2022-10-01T05:09:17.982Z,23.08
2022-10-01T05:11:44.387Z,23.30
2022-10-01T05:14:11.932Z,23.73
2022-10-01T05:16:38.403Z,23.45
2022-10-01T05:19:04.943Z,24.67
2022-10-01T05:21:32.103Z,23.95
2022-10-01T05:23:58.711Z,23.77
2022-10-01T05:26:25.245Z,23.73
2022-10-01T05:28:51.639Z,24.20
2022-10-01T05:31:18.899Z,23.05
2022-10-01T05:33:45.467Z,23.95
2022-10-01T05:36:11.961Z,23.15
2022-10-01T05:38:38.653Z,23.80
2022-10-01T05:41:05.212Z,23.90
2022-10-01T05:43:31.917Z,24.02
2022-10-01T05:46:02.325Z,24.45
2022-10-01T05:48:29.262Z,24.05
2022-10-01T05:50:55.602Z,24.02
2022-10-01T05:53:23.482Z,24.58
2022-10-01T05:55:49.849Z,24.70
2022-10-01T05:58:16.341Z,25.02
2022-10-01T06:00:43.523Z,24.73
2022-10-01T06:03:12.824Z,24.45
2022-10-01T06:05:39.826Z,24.75
2022-10-01T06:08:07.208Z,24.77
2022-10-01T06:10:33.938Z,24.25
2022-10-01T06:13:01.793Z,24.88
2022-10-01T06:15:29.394Z,25.33
2022-10-01T06:17:55.879Z,26.27
2022-10-01T06:20:22.257Z,25.42
2022-10-01T06:22:57.053Z,24.33
2022-10-01T06:25:24.495Z,25.45
2022-10-01T06:27:56.514Z,25.15
2022-10-01T06:30:23.665Z,24.83
2022-10-01T06:32:50.045Z,25.27
2022-10-01T06:35:16.414Z,24.83
2022-10-01T06:37:42.757Z,24.17
2022-10-01T06:40:09.751Z,24.80
2022-10-01T06:42:36.170Z,24.00
2022-10-01T06:45:02.797Z,23.08
2022-10-01T06:47:29.337Z,24.35
2022-10-01T06:49:55.657Z,24.50
2022-10-01T06:52:40.750Z,24.15
2022-10-01T06:55:07.657Z,23.63
2022-10-01T06:57:34.348Z,23.70
2022-10-01T07:00:00.859Z,23.88
2022-10-01T07:02:28.848Z,24.60
2022-10-01T07:04:59.008Z,24.42
2022-10-01T07:07:32.983Z,24.45
2022-10-01T07:09:59.522Z,24.77
2022-10-01T07:12:26.535Z,24.17
2022-10-01T07:14:53.843Z,24.42
2022-10-01T07:17:21.125Z,24.58
2022-10-01T07:19:47.616Z,23.08
2022-10-01T07:22:14.010Z,22.95
2022-10-01T07:24:40.432Z,23.55
2022-10-01T07:27:07.595Z,23.55
2022-10-01T07:29:34.317Z,22.52
2022-10-01T07:32:01.774Z,25.30
2022-10-01T07:34:31.120Z,25.10
2022-10-01T07:36:57.510Z,24.50
2022-10-01T07:39:24.185Z,24.55
2022-10-01T07:41:51.484Z,23.85
2022-10-01T07:44:18.949Z,24.95
2022-10-01T07:46:46.291Z,24.27
2022-10-01T07:49:12.960Z,24.80
2022-10-01T07:51:39.421Z,24.02
2022-10-01T07:54:05.890Z,25.02
2022-10-01T07:56:32.353Z,24.75
2022-10-01T07:58:59.042Z,24.63
2022-10-01T08:01:25.895Z,24.63
2022-10-01T08:03:52.815Z,23.90
2022-10-01T08:06:25.321Z,23.95
2022-10-01T08:08:52.741Z,23.95
2022-10-01T08:11:19.146Z,24.60
2022-10-01T08:13:48.098Z,23.80
2022-10-01T08:16:15.797Z,24.20
2022-10-01T08:18:42.218Z,24.23
2022-10-01T08:21:09.251Z,24.10
2022-10-01T08:23:36.286Z,24.77
2022-10-01T08:26:06.923Z,25.55
2022-10-01T08:28:34.786Z,25.20
2022-10-01T08:31:07.486Z,25.33
2022-10-01T08:33:34.815Z,26.45
2022-10-01T08:36:02.971Z,26.40
2022-10-01T08:38:29.491Z,26.25
2022-10-01T08:40:57.338Z,26.50
2022-10-01T08:43:30.817Z,27.50
2022-10-01T08:46:02.241Z,27.13
2022-10-01T08:48:56.809Z,28.38
2022-10-01T08:51:32.639Z,27.75
2022-10-01T08:54:09.047Z,28.95
2022-10-01T08:56:40.374Z,28.38
2022-10-01T08:59:26.637Z,28.80
2022-10-01T09:01:55.975Z,28.95
2022-10-01T09:04:23.624Z,29.27
2022-10-01T09:06:59.428Z,29.20
2022-10-01T09:09:45.283Z,29.27
2022-10-01T09:12:26.555Z,29.95
2022-10-01T09:15:10.475Z,30.27
2022-10-01T09:18:12.433Z,29.42
2022-10-01T09:20:47.712Z,28.75
2022-10-01T09:23:26.559Z,29.48
2022-10-01T09:25:53.242Z,30.00
2022-10-01T09:28:23.084Z,29.67
2022-10-01T09:31:00.149Z,29.48
2022-10-01T09:33:40.900Z,30.73
2022-10-01T09:36:23.476Z,32.33
2022-10-01T09:39:09.902Z,31.65
2022-10-01T09:41:36.693Z,31.60
2022-10-01T09:44:03.820Z,31.33
2022-10-01T09:46:30.376Z,31.15
2022-10-01T09:49:02.946Z,31.98
2022-10-01T09:51:39.436Z,34.10
2022-10-01T09:54:19.238Z,32.75
2022-10-01T09:56:51.150Z,33.28
2022-10-01T09:59:23.876Z,31.92
2022-10-01T10:01:53.874Z,32.00
2022-10-01T10:04:23.515Z,30.67
2022-10-01T10:06:53.210Z,31.30
2022-10-01T10:09:28.010Z,31.27
2022-10-01T10:11:56.621Z,32.05
2022-10-01T10:14:33.882Z,29.90
2022-10-01T10:17:17.971Z,29.63
2022-10-01T10:19:52.360Z,29.00
2022-10-01T10:22:24.809Z,29.15
2022-10-01T10:24:53.381Z,29.35
2022-10-01T10:27:30.089Z,28.63
2022-10-01T10:30:14.770Z,28.17
2022-10-01T10:32:43.325Z,26.17
2022-10-01T10:35:14.932Z,22.85
2022-10-01T10:37:50.765Z,21.48
2022-10-01T10:40:24.608Z,20.27
2022-10-01T10:42:56.149Z,19.23
2022-10-01T10:45:38.718Z,18.52
2022-10-01T10:48:12.194Z,18.75
2022-10-01T10:50:41.039Z,17.75
2022-10-01T10:53:22.636Z,17.33
2022-10-01T10:56:01.428Z,16.80
2022-10-01T10:58:30.034Z,17.08
2022-10-01T11:01:01.107Z,17.15
2022-10-01T11:03:30.918Z,16.33
2022-10-01T11:06:08.888Z,15.65
2022-10-01T11:08:35.774Z,14.65
2022-10-01T11:11:02.184Z,14.40
2022-10-01T11:13:58.306Z,13.43
2022-10-01T11:16:51.964Z,13.43
2022-10-01T11:19:40.144Z,12.40
2022-10-01T11:22:37.050Z,11.18
2022-10-01T11:25:47.839Z,10.80
2022-10-01T11:28:29.373Z,10.10
2022-10-01T11:31:10.503Z,10.20
2022-10-01T11:33:46.470Z,9.88
2022-10-01T11:36:34.187Z,10.10
2022-10-01T11:39:02.941Z,10.10
2022-10-01T11:41:35.282Z,9.90
2022-10-01T11:44:16.504Z,10.02
2022-10-01T11:47:00.768Z,9.77
2022-10-01T11:49:45.259Z,10.07
2022-10-01T11:52:20.465Z,10.35
2022-10-01T11:55:31.370Z,10.40
2022-10-01T11:58:31.523Z,10.85
2022-10-01T12:01:05.843Z,10.07
2022-10-01T12:03:52.882Z,10.38
2022-10-01T12:06:43.283Z,10.60
2022-10-01T12:09:15.938Z,9.85
2022-10-01T12:11:54.355Z,10.10
2022-10-01T12:14:27.096Z,9.50
2022-10-01T12:17:04.314Z,9.68
2022-10-01T12:19:37.179Z,9.40
2022-10-01T12:22:03.458Z,9.38
2022-10-01T12:24:36.339Z,9.35
2022-10-01T12:27:23.531Z,9.60
2022-10-01T12:30:08.116Z,9.73
2022-10-01T12:33:07.329Z,9.32
2022-10-01T12:35:39.832Z,9.60
2022-10-01T12:38:21.430Z,9.73
2022-10-01T12:41:42.237Z,9.73
2022-10-01T12:44:34.256Z,10.00
2022-10-01T12:47:23.463Z,10.05
2022-10-01T12:50:20.941Z,9.73
2022-10-01T12:53:15.339Z,9.90
2022-10-01T12:55:48.658Z,10.75
2022-10-01T12:58:15.327Z,10.30
2022-10-01T13:00:55.308Z,10.48
2022-10-01T13:03:52.723Z,10.50
2022-10-01T13:06:35.094Z,13.55
2022-10-01T13:09:17.288Z,10.10
2022-10-01T13:12:09.229Z,16.75
2022-10-01T13:14:36.635Z,25.52
2022-10-01T13:17:13.317Z,25.98
2022-10-01T13:19:57.864Z,25.00
2022-10-01T13:22:46.168Z,24.55
2022-10-01T13:25:30.595Z,25.83
2022-10-01T13:28:11.857Z,26.00
2022-10-01T13:31:12.851Z,26.20
2022-10-01T13:33:39.505Z,26.70
2022-10-01T13:36:08.195Z,26.75
2022-10-01T13:38:47.612Z,27.60
2022-10-01T13:41:21.447Z,27.83
2022-10-01T13:43:56.842Z,28.55
2022-10-01T13:46:28.424Z,27.67
2022-10-01T13:48:55.669Z,28.48
2022-10-01T13:51:22.395Z,28.90
2022-10-01T13:53:57.972Z,29.25
2022-10-01T13:56:32.611Z,29.00
2022-10-01T13:58:59.615Z,29.05
2022-10-01T14:01:31.304Z,27.48
2022-10-01T14:04:21.992Z,27.65
2022-10-01T14:07:03.114Z,28.08
2022-10-01T14:09:35.032Z,26.10
2022-10-01T14:12:35.419Z,25.80
2022-10-01T14:15:58.157Z,23.45
2022-10-01T14:18:29.117Z,20.88
2022-10-01T14:21:25.872Z,18.88
2022-10-01T14:24:14.208Z,18.50
2022-10-01T14:26:54.342Z,16.40
2022-10-01T14:29:35.860Z,15.07
2022-10-01T14:32:11.349Z,14.82
2022-10-01T14:34:58.029Z,14.68
2022-10-01T14:37:24.811Z,13.20
2022-10-01T14:40:26.138Z,13.15
2022-10-01T14:43:03.229Z,12.35
2022-10-01T14:45:30.279Z,12.00
2022-10-01T14:48:05.239Z,12.10
2022-10-01T14:50:34.953Z,12.23
2022-10-01T14:53:01.556Z,11.85
2022-10-01T14:55:29.396Z,11.48
2022-10-01T14:57:57.598Z,11.63
2022-10-01T15:00:27.879Z,11.93
2022-10-01T15:03:18.864Z,12.02
2022-10-01T15:05:49.036Z,12.60
2022-10-01T15:11:02.493Z,11.88
2022-10-01T15:16:27.812Z,11.45
2022-10-01T15:18:56.554Z,12.80
2022-10-01T15:21:38.004Z,11.73
2022-10-01T15:24:07.245Z,10.57
2022-10-01T15:26:34.409Z,11.68
2022-10-01T15:29:04.232Z,10.88
2022-10-01T15:31:32.277Z,11.00
2022-10-01T15:34:02.837Z,10.02
2022-10-01T15:36:29.385Z,10.30
2022-10-01T15:38:56.590Z,9.73
2022-10-01T15:41:32.521Z,10.38
2022-10-01T15:44:03.825Z,10.25
2022-10-01T15:46:34.977Z,10.77
2022-10-01T15:49:21.417Z,10.35
2022-10-01T15:52:14.388Z,10.70
2022-10-01T15:54:43.253Z,10.77
2022-10-01T15:57:28.148Z,9.93
2022-10-01T15:59:56.878Z,9.98
2022-10-01T16:02:27.832Z,12.20
2022-10-01T16:04:56.795Z,11.00
2022-10-01T16:07:29.644Z,10.95
2022-10-01T16:09:59.162Z,10.70
2022-10-01T16:12:29.327Z,10.60
2022-10-01T16:17:29.868Z,11.73
2022-10-01T16:19:59.289Z,11.45
2022-10-01T16:22:29.583Z,11.63
2022-10-01T16:27:47.396Z,10.38
2022-10-01T16:30:21.327Z,10.05
2022-10-01T16:32:47.938Z,11.13
2022-10-01T16:35:28.883Z,10.27
2022-10-01T16:37:58.016Z,12.20
2022-10-01T16:40:33.663Z,11.55
2022-10-01T16:43:01.065Z,10.18
2022-10-01T16:45:33.522Z,11.77
2022-10-01T16:48:00.738Z,9.80
2022-10-01T16:50:27.564Z,10.23
2022-10-01T16:52:55.688Z,10.52
2022-10-01T16:55:24.893Z,11.82
2022-10-01T16:57:54.581Z,10.88
2022-10-01T17:00:23.824Z,10.45
2022-10-01T17:02:50.384Z,9.63
2022-10-01T17:05:28.422Z,10.10
2022-10-01T17:08:03.623Z,10.68
2022-10-01T17:10:32.248Z,10.00
2022-10-01T17:12:59.644Z,10.68
2022-10-01T17:15:28.041Z,10.63
2022-10-01T17:17:55.786Z,9.98
2022-10-01T17:20:23.686Z,9.98
2022-10-01T17:22:51.756Z,10.10
2022-10-01T17:25:21.130Z,10.85
2022-10-01T17:27:48.391Z,9.70
2022-10-01T17:30:15.953Z,11.05
2022-10-01T17:32:43.408Z,11.07
2022-10-01T17:35:11.497Z,10.77
2022-10-01T17:37:37.991Z,12.13
2022-10-01T17:40:05.838Z,11.52
2022-10-01T17:42:34.426Z,12.05
2022-10-01T17:45:01.803Z,11.60
2022-10-01T17:47:28.733Z,11.27
2022-10-01T17:49:55.637Z,11.23
2022-10-01T17:52:22.388Z,11.70
2022-10-01T17:54:49.138Z,11.00
2022-10-01T17:57:15.895Z,11.20
2022-10-01T17:59:42.616Z,10.95
2022-10-01T18:02:36.648Z,12.07
2022-10-01T18:04:58.835Z,11.27
2022-10-01T18:07:26.188Z,11.50
2022-10-01T18:09:53.946Z,11.95
2022-10-01T18:12:20.874Z,11.25
2022-10-01T18:14:48.648Z,11.20
2022-10-01T18:17:15.307Z,11.65
2022-10-01T18:19:57.106Z,12.02
2022-10-01T18:22:23.879Z,11.35
2022-10-01T18:24:50.313Z,11.25
2022-10-01T18:27:16.861Z,10.55
2022-10-01T18:29:43.300Z,11.20
2022-10-01T18:32:19.263Z,11.30
2022-10-01T18:35:00.176Z,11.55
2022-10-01T18:37:40.397Z,10.88
2022-10-01T18:40:16.121Z,11.10
2022-10-01T18:42:45.342Z,11.60
2022-10-01T18:45:26.427Z,13.75
2022-10-01T18:48:08.947Z,13.02
2022-10-01T18:50:46.562Z,12.75
2022-10-01T18:53:34.644Z,12.23
2022-10-01T18:56:20.224Z,11.35
2022-10-01T18:59:17.593Z,11.35
2022-10-01T19:02:03.269Z,11.80
2022-10-01T19:05:05.390Z,12.27
2022-10-01T19:07:58.472Z,11.90
2022-10-01T19:10:31.053Z,12.38
2022-10-01T19:13:22.533Z,11.82
2022-10-01T19:15:49.166Z,11.65
2022-10-01T19:18:29.353Z,11.98
2022-10-01T19:21:19.385Z,11.82
2022-10-01T19:24:07.761Z,12.65
2022-10-01T19:26:49.261Z,12.50
2022-10-01T19:29:36.416Z,12.73
2022-10-01T19:32:12.747Z,11.18
2022-10-01T19:34:44.548Z,11.82
2022-10-01T19:37:36.424Z,11.88
2022-10-01T19:40:23.544Z,10.50
2022-10-01T19:43:01.135Z,11.63
2022-10-01T19:45:42.447Z,10.57
2022-10-01T19:48:41.254Z,11.15
2022-10-01T19:51:12.485Z,12.02
2022-10-01T19:53:43.753Z,11.70
2022-10-01T19:56:16.375Z,11.25
2022-10-01T19:58:43.096Z,11.52
2022-10-01T20:01:17.207Z,11.30
2022-10-01T20:03:51.157Z,11.27
2022-10-01T20:06:26.895Z,10.90
2022-10-01T20:09:00.327Z,11.50
2022-10-01T20:11:36.299Z,11.25
2022-10-01T20:14:40.237Z,10.75
2022-10-01T20:17:36.062Z,11.10
2022-10-01T20:20:36.166Z,11.05
2022-10-01T20:23:34.267Z,11.55
2022-10-01T20:26:09.440Z,11.98
2022-10-01T20:28:42.077Z,12.38
2022-10-01T20:31:20.503Z,13.40
2022-10-01T20:33:52.535Z,12.38
2022-10-01T20:36:26.231Z,11.95
2022-10-01T20:39:22.550Z,11.18
2022-10-01T20:41:53.277Z,10.65
2022-10-01T20:44:25.904Z,11.23
2022-10-01T20:47:05.236Z,10.75
2022-10-01T20:49:43.401Z,11.50
2022-10-01T20:52:41.359Z,11.32
2022-10-01T20:55:18.577Z,10.80
2022-10-01T20:57:50.820Z,10.27
2022-10-01T21:00:28.029Z,11.68
2022-10-01T21:03:11.015Z,10.68
2022-10-01T21:05:58.833Z,10.70
2022-10-01T21:09:02.676Z,11.60
2022-10-01T21:11:39.749Z,10.55
2022-10-01T21:14:27.123Z,10.75
2022-10-01T21:17:29.020Z,9.95
2022-10-01T21:20:13.808Z,10.63
2022-10-01T21:22:52.914Z,11.32
2022-10-01T21:25:41.164Z,10.88
2022-10-01T21:28:41.235Z,10.45
2022-10-01T21:31:13.533Z,10.48
2022-10-01T21:33:58.024Z,11.38
2022-10-01T21:36:45.977Z,10.65
2022-10-01T21:39:20.204Z,10.65
2022-10-01T21:42:10.165Z,10.68
2022-10-01T21:45:00.020Z,10.48
2022-10-01T21:47:50.708Z,11.10
2022-10-01T21:50:32.141Z,10.88
2022-10-01T21:53:28.848Z,10.88
2022-10-01T21:56:13.848Z,11.20
2022-10-01T21:59:14.343Z,11.30
2022-10-01T22:01:43.717Z,11.60
2022-10-01T22:04:19.068Z,12.60
2022-10-01T22:06:51.741Z,12.68
2022-10-01T22:09:44.234Z,12.50
2022-10-01T22:12:12.049Z,12.18
2022-10-01T22:14:40.318Z,12.73
2022-10-01T22:17:17.046Z,13.00
2022-10-01T22:19:49.051Z,13.52
2022-10-01T22:22:33.065Z,12.48
2022-10-01T22:25:00.876Z,13.15
2022-10-01T22:27:31.951Z,14.27
2022-10-01T22:30:20.724Z,14.85
2022-10-01T22:32:56.485Z,15.02
2022-10-01T22:35:28.468Z,14.00
2022-10-01T22:38:25.250Z,14.00
2022-10-01T22:41:08.534Z,14.65
2022-10-01T22:43:35.570Z,13.05
2022-10-01T22:46:13.247Z,14.20
2022-10-01T22:48:44.353Z,13.50
2022-10-01T22:51:24.340Z,14.23
2022-10-01T22:54:17.464Z,13.50
2022-10-01T22:57:03.170Z,13.93
2022-10-01T22:59:43.788Z,14.18
2022-10-01T23:02:35.803Z,14.85
2022-10-01T23:05:31.254Z,14.73
2022-10-01T23:08:03.442Z,14.82
2022-10-01T23:10:51.678Z,15.20
2022-10-01T23:13:52.229Z,14.43
2022-10-01T23:16:37.579Z,14.10
2022-10-01T23:19:22.106Z,14.80
2022-10-01T23:21:51.336Z,13.77
2022-10-01T23:24:46.366Z,13.80
2022-10-01T23:27:33.433Z,14.65
2022-10-01T23:30:16.031Z,14.48
2022-10-01T23:33:00.818Z,14.77
2022-10-01T23:35:42.863Z,14.73
2022-10-01T23:38:37.273Z,14.23
2022-10-01T23:41:19.506Z,15.80
2022-10-01T23:43:49.106Z,14.40
2022-10-01T23:46:30.114Z,16.50
2022-10-01T23:49:03.264Z,14.52
2022-10-01T23:51:42.818Z,15.20
2022-10-01T23:54:09.126Z,16.65
2022-10-01T23:56:50.799Z,14.27
2022-10-01T23:59:32.421Z,15.35
